sensor_id;sensor_type;location;lat;lon;timestamp;P1;durP1;ratioP1;P2;durP2;ratioP2
82244;SDS011;71849;50.096;14.458;2023-12-20T00:01:18;7.57;;;2.80;;
82244;SDS011;71849;50.096;14.458;2023-12-20T00:03:47;7.55;;;3.00;;
82244;SDS011;71849;50.096;14.458;2023-12-20T00:06:15;4.88;;;2.22;;
82244;SDS011;71849;50.096;14.458;2023-12-20T00:08:43;6.13;;;2.95;;
82244;SDS011;71849;50.096;14.458;2023-12-20T00:11:13;6.50;;;3.30;;
82244;SDS011;71849;50.096;14.458;2023-12-20T00:13:41;6.10;;;2.65;;
82244;SDS011;71849;50.096;14.458;2023-12-20T00:16:12;6.07;;;2.83;;
82244;SDS011;71849;50.096;14.458;2023-12-20T00:18:40;6.65;;;2.45;;
82244;SDS011;71849;50.096;14.458;2023-12-20T00:21:09;7.07;;;2.75;;
82244;SDS011;71849;50.096;14.458;2023-12-20T00:23:37;5.53;;;2.67;;
82244;SDS011;71849;50.096;14.458;2023-12-20T00:26:13;6.43;;;2.70;;
82244;SDS011;71849;50.096;14.458;2023-12-20T00:28:41;6.43;;;2.92;;
82244;SDS011;71849;50.096;14.458;2023-12-20T00:31:13;7.60;;;3.25;;
82244;SDS011;71849;50.096;14.458;2023-12-20T00:33:41;6.10;;;2.83;;
82244;SDS011;71849;50.096;14.458;2023-12-20T00:36:12;6.25;;;2.65;;
82244;SDS011;71849;50.096;14.458;2023-12-20T00:38:43;6.70;;;3.15;;
82244;SDS011;71849;50.096;14.458;2023-12-20T00:41:11;6.50;;;3.17;;
82244;SDS011;71849;50.096;14.458;2023-12-20T00:43:39;6.25;;;2.50;;
82244;SDS011;71849;50.096;14.458;2023-12-20T00:46:08;6.50;;;2.85;;
82244;SDS011;71849;50.096;14.458;2023-12-20T00:48:39;6.47;;;2.92;;
82244;SDS011;71849;50.096;14.458;2023-12-20T00:51:07;6.72;;;2.88;;
82244;SDS011;71849;50.096;14.458;2023-12-20T00:53:36;7.47;;;3.15;;
82244;SDS011;71849;50.096;14.458;2023-12-20T00:56:04;7.22;;;3.33;;
82244;SDS011;71849;50.096;14.458;2023-12-20T00:58:33;6.35;;;3.17;;
82244;SDS011;71849;50.096;14.458;2023-12-20T01:01:01;7.15;;;3.00;;
82244;SDS011;71849;50.096;14.458;2023-12-20T01:03:30;5.68;;;2.72;;
82244;SDS011;71849;50.096;14.458;2023-12-20T01:06:01;6.32;;;2.90;;
82244;SDS011;71849;50.096;14.458;2023-12-20T01:08:31;6.97;;;3.03;;
82244;SDS011;71849;50.096;14.458;2023-12-20T01:11:03;6.00;;;3.10;;
82244;SDS011;71849;50.096;14.458;2023-12-20T01:13:34;6.40;;;3.15;;
82244;SDS011;71849;50.096;14.458;2023-12-20T01:16:03;7.95;;;3.10;;
82244;SDS011;71849;50.096;14.458;2023-12-20T01:18:31;7.60;;;3.40;;
82244;SDS011;71849;50.096;14.458;2023-12-20T01:21:04;7.90;;;3.25;;
82244;SDS011;71849;50.096;14.458;2023-12-20T01:23:32;5.95;;;3.30;;
82244;SDS011;71849;50.096;14.458;2023-12-20T01:26:02;6.15;;;3.22;;
82244;SDS011;71849;50.096;14.458;2023-12-20T01:28:35;7.05;;;2.95;;
82244;SDS011;71849;50.096;14.458;2023-12-20T01:31:03;7.93;;;3.17;;
82244;SDS011;71849;50.096;14.458;2023-12-20T01:33:32;8.45;;;3.53;;
82244;SDS011;71849;50.096;14.458;2023-12-20T01:36:00;9.20;;;3.58;;
82244;SDS011;71849;50.096;14.458;2023-12-20T01:38:31;5.97;;;2.63;;
82244;SDS011;71849;50.096;14.458;2023-12-20T01:40:59;7.05;;;3.30;;
82244;SDS011;71849;50.096;14.458;2023-12-20T01:43:28;7.65;;;3.80;;
82244;SDS011;71849;50.096;14.458;2023-12-20T01:45:57;8.02;;;3.58;;
82244;SDS011;71849;50.096;14.458;2023-12-20T01:48:30;7.32;;;3.10;;
82244;SDS011;71849;50.096;14.458;2023-12-20T01:51:00;7.40;;;3.35;;
82244;SDS011;71849;50.096;14.458;2023-12-20T01:53:32;6.10;;;3.28;;
82244;SDS011;71849;50.096;14.458;2023-12-20T01:56:03;7.55;;;3.38;;
82244;SDS011;71849;50.096;14.458;2023-12-20T02:05:55;7.32;;;3.05;;
82244;SDS011;71849;50.096;14.458;2023-12-20T02:08:23;7.47;;;3.47;;
82244;SDS011;71849;50.096;14.458;2023-12-20T02:10:54;7.75;;;3.63;;
82244;SDS011;71849;50.096;14.458;2023-12-20T02:13:23;6.00;;;3.03;;
82244;SDS011;71849;50.096;14.458;2023-12-20T02:15:52;7.00;;;3.55;;
82244;SDS011;71849;50.096;14.458;2023-12-20T02:18:20;7.20;;;3.47;;
82244;SDS011;71849;50.096;14.458;2023-12-20T02:20:48;6.47;;;3.42;;
82244;SDS011;71849;50.096;14.458;2023-12-20T02:23:19;8.52;;;3.50;;
82244;SDS011;71849;50.096;14.458;2023-12-20T02:25:48;10.25;;;3.97;;
82244;SDS011;71849;50.096;14.458;2023-12-20T02:28:16;7.30;;;2.90;;
82244;SDS011;71849;50.096;14.458;2023-12-20T02:30:44;7.28;;;2.95;;
82244;SDS011;71849;50.096;14.458;2023-12-20T02:40:41;6.60;;;3.22;;
82244;SDS011;71849;50.096;14.458;2023-12-20T02:43:09;7.05;;;3.35;;
82244;SDS011;71849;50.096;14.458;2023-12-20T02:45:38;6.47;;;3.40;;
82244;SDS011;71849;50.096;14.458;2023-12-20T02:48:06;7.25;;;3.22;;
82244;SDS011;71849;50.096;14.458;2023-12-20T02:50:34;7.47;;;3.50;;
82244;SDS011;71849;50.096;14.458;2023-12-20T02:53:04;8.18;;;3.70;;
82244;SDS011;71849;50.096;14.458;2023-12-20T02:55:34;7.10;;;3.28;;
82244;SDS011;71849;50.096;14.458;2023-12-20T02:58:05;6.93;;;3.50;;
82244;SDS011;71849;50.096;14.458;2023-12-20T03:00:34;6.22;;;3.17;;
82244;SDS011;71849;50.096;14.458;2023-12-20T03:03:02;8.60;;;3.67;;
82244;SDS011;71849;50.096;14.458;2023-12-20T03:05:30;7.80;;;3.53;;
82244;SDS011;71849;50.096;14.458;2023-12-20T03:07:58;7.63;;;3.75;;
82244;SDS011;71849;50.096;14.458;2023-12-20T03:10:27;6.72;;;3.30;;
82244;SDS011;71849;50.096;14.458;2023-12-20T03:12:55;8.85;;;3.65;;
82244;SDS011;71849;50.096;14.458;2023-12-20T03:15:29;6.40;;;3.40;;
82244;SDS011;71849;50.096;14.458;2023-12-20T03:17:57;7.15;;;3.42;;
82244;SDS011;71849;50.096;14.458;2023-12-20T03:20:25;6.93;;;3.40;;
82244;SDS011;71849;50.096;14.458;2023-12-20T03:22:54;8.77;;;3.90;;
82244;SDS011;71849;50.096;14.458;2023-12-20T03:25:22;6.53;;;3.13;;
82244;SDS011;71849;50.096;14.458;2023-12-20T03:27:50;6.25;;;3.05;;
82244;SDS011;71849;50.096;14.458;2023-12-20T03:30:20;6.57;;;3.20;;
82244;SDS011;71849;50.096;14.458;2023-12-20T03:32:53;7.00;;;3.13;;
82244;SDS011;71849;50.096;14.458;2023-12-20T03:35:23;7.65;;;3.30;;
82244;SDS011;71849;50.096;14.458;2023-12-20T03:37:52;8.38;;;3.25;;
82244;SDS011;71849;50.096;14.458;2023-12-20T03:42:50;6.00;;;2.70;;
82244;SDS011;71849;50.096;14.458;2023-12-20T03:45:18;6.40;;;2.88;;
82244;SDS011;71849;50.096;14.458;2023-12-20T03:47:50;6.03;;;2.38;;
82244;SDS011;71849;50.096;14.458;2023-12-20T03:50:24;6.50;;;3.00;;
82244;SDS011;71849;50.096;14.458;2023-12-20T03:52:54;5.53;;;2.63;;
82244;SDS011;71849;50.096;14.458;2023-12-20T03:55:27;5.63;;;2.58;;
82244;SDS011;71849;50.096;14.458;2023-12-20T03:57:55;6.30;;;2.60;;
82244;SDS011;71849;50.096;14.458;2023-12-20T04:00:23;5.88;;;2.63;;
82244;SDS011;71849;50.096;14.458;2023-12-20T04:02:52;5.82;;;2.60;;
82244;SDS011;71849;50.096;14.458;2023-12-20T04:05:24;6.28;;;2.90;;
82244;SDS011;71849;50.096;14.458;2023-12-20T04:07:52;6.85;;;2.40;;
82244;SDS011;71849;50.096;14.458;2023-12-20T04:10:20;5.55;;;2.22;;
82244;SDS011;71849;50.096;14.458;2023-12-20T04:12:49;6.30;;;2.33;;
82244;SDS011;71849;50.096;14.458;2023-12-20T04:15:17;4.20;;;2.10;;
82244;SDS011;71849;50.096;14.458;2023-12-20T04:17:46;5.65;;;2.20;;
82244;SDS011;71849;50.096;14.458;2023-12-20T04:20:14;5.50;;;2.13;;
82244;SDS011;71849;50.096;14.458;2023-12-20T04:22:53;6.85;;;3.10;;
82244;SDS011;71849;50.096;14.458;2023-12-20T04:25:21;5.53;;;2.20;;
82244;SDS011;71849;50.096;14.458;2023-12-20T04:27:50;5.68;;;2.47;;
82244;SDS011;71849;50.096;14.458;2023-12-20T04:30:18;4.78;;;2.15;;
82244;SDS011;71849;50.096;14.458;2023-12-20T04:32:46;5.15;;;2.17;;
82244;SDS011;71849;50.096;14.458;2023-12-20T04:35:15;5.53;;;2.20;;
82244;SDS011;71849;50.096;14.458;2023-12-20T04:37:43;4.50;;;2.10;;
82244;SDS011;71849;50.096;14.458;2023-12-20T04:40:15;4.40;;;1.95;;
82244;SDS011;71849;50.096;14.458;2023-12-20T04:42:43;5.53;;;2.10;;
82244;SDS011;71849;50.096;14.458;2023-12-20T04:45:12;5.40;;;2.25;;
82244;SDS011;71849;50.096;14.458;2023-12-20T04:47:42;4.60;;;2.20;;
82244;SDS011;71849;50.096;14.458;2023-12-20T04:52:41;5.90;;;2.10;;
82244;SDS011;71849;50.096;14.458;2023-12-20T04:55:10;4.63;;;2.17;;
82244;SDS011;71849;50.096;14.458;2023-12-20T04:57:41;4.43;;;2.30;;
82244;SDS011;71849;50.096;14.458;2023-12-20T05:00:11;4.63;;;2.20;;
82244;SDS011;71849;50.096;14.458;2023-12-20T05:07:36;5.18;;;1.80;;
82244;SDS011;71849;50.096;14.458;2023-12-20T05:10:05;5.07;;;2.30;;
82244;SDS011;71849;50.096;14.458;2023-12-20T05:12:34;6.45;;;2.63;;
82244;SDS011;71849;50.096;14.458;2023-12-20T05:15:08;4.80;;;1.98;;
82244;SDS011;71849;50.096;14.458;2023-12-20T05:17:37;5.18;;;2.08;;
82244;SDS011;71849;50.096;14.458;2023-12-20T05:20:06;5.05;;;2.40;;
82244;SDS011;71849;50.096;14.458;2023-12-20T05:22:35;4.70;;;2.10;;
82244;SDS011;71849;50.096;14.458;2023-12-20T05:25:04;5.20;;;1.88;;
82244;SDS011;71849;50.096;14.458;2023-12-20T05:27:32;4.68;;;2.10;;
82244;SDS011;71849;50.096;14.458;2023-12-20T05:30:01;5.40;;;2.20;;
82244;SDS011;71849;50.096;14.458;2023-12-20T05:32:32;5.90;;;2.28;;
82244;SDS011;71849;50.096;14.458;2023-12-20T05:35:00;6.32;;;2.28;;
82244;SDS011;71849;50.096;14.458;2023-12-20T05:37:29;5.47;;;2.20;;
82244;SDS011;71849;50.096;14.458;2023-12-20T05:39:57;5.72;;;2.45;;
82244;SDS011;71849;50.096;14.458;2023-12-20T05:42:26;4.72;;;2.00;;
82244;SDS011;71849;50.096;14.458;2023-12-20T05:44:54;5.78;;;2.25;;
82244;SDS011;71849;50.096;14.458;2023-12-20T05:47:22;5.07;;;2.30;;
82244;SDS011;71849;50.096;14.458;2023-12-20T05:49:53;5.78;;;2.03;;
82244;SDS011;71849;50.096;14.458;2023-12-20T05:52:21;5.45;;;2.28;;
82244;SDS011;71849;50.096;14.458;2023-12-20T05:54:50;4.82;;;2.00;;
82244;SDS011;71849;50.096;14.458;2023-12-20T05:57:18;5.13;;;2.10;;
82244;SDS011;71849;50.096;14.458;2023-12-20T05:59:46;4.72;;;2.10;;
82244;SDS011;71849;50.096;14.458;2023-12-20T06:02:15;5.65;;;2.20;;
82244;SDS011;71849;50.096;14.458;2023-12-20T06:04:43;5.00;;;1.90;;
82244;SDS011;71849;50.096;14.458;2023-12-20T06:07:16;5.32;;;2.40;;
82244;SDS011;71849;50.096;14.458;2023-12-20T06:09:44;4.80;;;2.40;;
82244;SDS011;71849;50.096;14.458;2023-12-20T06:12:13;5.63;;;1.98;;
82244;SDS011;71849;50.096;14.458;2023-12-20T06:14:41;4.50;;;1.98;;
82244;SDS011;71849;50.096;14.458;2023-12-20T06:17:09;6.05;;;2.33;;
82244;SDS011;71849;50.096;14.458;2023-12-20T06:19:38;4.85;;;2.00;;
82244;SDS011;71849;50.096;14.458;2023-12-20T06:22:07;7.50;;;2.55;;
82244;SDS011;71849;50.096;14.458;2023-12-20T06:24:40;5.55;;;2.25;;
82244;SDS011;71849;50.096;14.458;2023-12-20T06:27:09;6.72;;;2.97;;
82244;SDS011;71849;50.096;14.458;2023-12-20T06:29:37;5.45;;;2.38;;
82244;SDS011;71849;50.096;14.458;2023-12-20T06:32:08;4.35;;;1.73;;
82244;SDS011;71849;50.096;14.458;2023-12-20T06:34:38;4.30;;;1.98;;
82244;SDS011;71849;50.096;14.458;2023-12-20T06:37:07;4.88;;;1.88;;
82244;SDS011;71849;50.096;14.458;2023-12-20T06:39:35;3.55;;;1.55;;
82244;SDS011;71849;50.096;14.458;2023-12-20T06:42:07;5.68;;;2.17;;
82244;SDS011;71849;50.096;14.458;2023-12-20T06:44:35;4.65;;;1.90;;
82244;SDS011;71849;50.096;14.458;2023-12-20T06:47:04;4.53;;;1.55;;
82244;SDS011;71849;50.096;14.458;2023-12-20T06:49:32;5.35;;;1.95;;
82244;SDS011;71849;50.096;14.458;2023-12-20T06:52:03;5.55;;;1.55;;
82244;SDS011;71849;50.096;14.458;2023-12-20T06:54:31;3.83;;;1.60;;
82244;SDS011;71849;50.096;14.458;2023-12-20T06:57:00;3.25;;;1.60;;
82244;SDS011;71849;50.096;14.458;2023-12-20T06:59:30;4.50;;;1.38;;
82244;SDS011;71849;50.096;14.458;2023-12-20T07:01:59;4.57;;;1.60;;
82244;SDS011;71849;50.096;14.458;2023-12-20T07:04:27;3.03;;;1.30;;
82244;SDS011;71849;50.096;14.458;2023-12-20T07:06:55;3.53;;;1.35;;
82244;SDS011;71849;50.096;14.458;2023-12-20T07:09:25;4.07;;;1.35;;
82244;SDS011;71849;50.096;14.458;2023-12-20T07:11:54;4.60;;;1.67;;
82244;SDS011;71849;50.096;14.458;2023-12-20T07:14:23;3.67;;;1.60;;
82244;SDS011;71849;50.096;14.458;2023-12-20T07:16:54;5.10;;;1.80;;
82244;SDS011;71849;50.096;14.458;2023-12-20T07:19:22;3.05;;;1.30;;
82244;SDS011;71849;50.096;14.458;2023-12-20T07:21:52;3.40;;;1.15;;
82244;SDS011;71849;50.096;14.458;2023-12-20T07:24:21;5.18;;;1.70;;
82244;SDS011;71849;50.096;14.458;2023-12-20T07:26:49;2.97;;;1.30;;
82244;SDS011;71849;50.096;14.458;2023-12-20T07:29:19;4.78;;;1.23;;
82244;SDS011;71849;50.096;14.458;2023-12-20T07:31:47;3.80;;;1.40;;
82244;SDS011;71849;50.096;14.458;2023-12-20T07:34:19;3.15;;;1.30;;
82244;SDS011;71849;50.096;14.458;2023-12-20T07:36:48;3.17;;;1.52;;
82244;SDS011;71849;50.096;14.458;2023-12-20T07:39:16;2.85;;;1.30;;
82244;SDS011;71849;50.096;14.458;2023-12-20T07:41:45;3.85;;;1.45;;
82244;SDS011;71849;50.096;14.458;2023-12-20T07:44:13;4.90;;;2.85;;
82244;SDS011;71849;50.096;14.458;2023-12-20T07:46:41;4.32;;;1.55;;
82244;SDS011;71849;50.096;14.458;2023-12-20T07:49:25;3.92;;;1.40;;
82244;SDS011;71849;50.096;14.458;2023-12-20T07:51:56;4.40;;;1.48;;
82244;SDS011;71849;50.096;14.458;2023-12-20T07:54:24;2.15;;;1.10;;
82244;SDS011;71849;50.096;14.458;2023-12-20T07:56:53;2.45;;;1.10;;
82244;SDS011;71849;50.096;14.458;2023-12-20T07:59:21;3.55;;;1.10;;
82244;SDS011;71849;50.096;14.458;2023-12-20T08:01:49;4.45;;;1.10;;
82244;SDS011;71849;50.096;14.458;2023-12-20T08:04:17;3.35;;;1.20;;
82244;SDS011;71849;50.096;14.458;2023-12-20T08:06:46;2.78;;;1.00;;
82244;SDS011;71849;50.096;14.458;2023-12-20T08:09:23;3.72;;;1.20;;
82244;SDS011;71849;50.096;14.458;2023-12-20T08:11:54;2.95;;;1.15;;
82244;SDS011;71849;50.096;14.458;2023-12-20T08:14:24;3.60;;;1.15;;
82244;SDS011;71849;50.096;14.458;2023-12-20T08:16:52;6.18;;;1.63;;
82244;SDS011;71849;50.096;14.458;2023-12-20T08:19:20;2.75;;;1.05;;
82244;SDS011;71849;50.096;14.458;2023-12-20T08:21:49;3.20;;;1.00;;
82244;SDS011;71849;50.096;14.458;2023-12-20T08:24:17;3.35;;;1.23;;
82244;SDS011;71849;50.096;14.458;2023-12-20T08:26:48;2.95;;;0.80;;
82244;SDS011;71849;50.096;14.458;2023-12-20T08:29:16;2.42;;;1.05;;
82244;SDS011;71849;50.096;14.458;2023-12-20T08:31:46;2.33;;;0.90;;
82244;SDS011;71849;50.096;14.458;2023-12-20T08:34:19;1.13;;;0.80;;
82244;SDS011;71849;50.096;14.458;2023-12-20T08:36:51;6.28;;;1.73;;
82244;SDS011;71849;50.096;14.458;2023-12-20T08:39:19;2.25;;;1.15;;
82244;SDS011;71849;50.096;14.458;2023-12-20T08:41:50;1.58;;;0.90;;
82244;SDS011;71849;50.096;14.458;2023-12-20T08:44:18;2.15;;;1.10;;
82244;SDS011;71849;50.096;14.458;2023-12-20T08:46:47;4.22;;;1.30;;
82244;SDS011;71849;50.096;14.458;2023-12-20T08:49:16;6.70;;;2.88;;
82244;SDS011;71849;50.096;14.458;2023-12-20T08:51:54;2.70;;;1.10;;
82244;SDS011;71849;50.096;14.458;2023-12-20T08:54:26;2.58;;;1.33;;
82244;SDS011;71849;50.096;14.458;2023-12-20T09:04:24;3.97;;;1.48;;
82244;SDS011;71849;50.096;14.458;2023-12-20T09:06:52;2.20;;;0.93;;
82244;SDS011;71849;50.096;14.458;2023-12-20T09:09:22;4.78;;;1.50;;
82244;SDS011;71849;50.096;14.458;2023-12-20T09:11:53;4.90;;;1.80;;
82244;SDS011;71849;50.096;14.458;2023-12-20T09:14:24;5.28;;;1.45;;
82244;SDS011;71849;50.096;14.458;2023-12-20T09:16:53;4.70;;;1.15;;
82244;SDS011;71849;50.096;14.458;2023-12-20T09:19:24;3.72;;;1.30;;
82244;SDS011;71849;50.096;14.458;2023-12-20T09:21:56;3.78;;;1.38;;
82244;SDS011;71849;50.096;14.458;2023-12-20T09:26:53;4.35;;;1.40;;
82244;SDS011;71849;50.096;14.458;2023-12-20T09:29:21;14.00;;;6.65;;
82244;SDS011;71849;50.096;14.458;2023-12-20T09:31:50;5.88;;;1.45;;
82244;SDS011;71849;50.096;14.458;2023-12-20T09:34:18;5.63;;;1.40;;
82244;SDS011;71849;50.096;14.458;2023-12-20T09:36:50;3.42;;;1.55;;
82244;SDS011;71849;50.096;14.458;2023-12-20T09:39:19;2.42;;;1.20;;
82244;SDS011;71849;50.096;14.458;2023-12-20T09:41:57;3.35;;;1.30;;
82244;SDS011;71849;50.096;14.458;2023-12-20T09:44:28;3.10;;;1.17;;
82244;SDS011;71849;50.096;14.458;2023-12-20T09:46:57;6.50;;;2.58;;
82244;SDS011;71849;50.096;14.458;2023-12-20T09:49:25;6.78;;;3.05;;
82244;SDS011;71849;50.096;14.458;2023-12-20T09:51:58;3.72;;;1.58;;
82244;SDS011;71849;50.096;14.458;2023-12-20T09:54:28;4.20;;;1.70;;
82244;SDS011;71849;50.096;14.458;2023-12-20T09:56:56;3.53;;;1.38;;
82244;SDS011;71849;50.096;14.458;2023-12-20T09:59:27;5.10;;;1.25;;
82244;SDS011;71849;50.096;14.458;2023-12-20T10:01:58;2.35;;;1.00;;
82244;SDS011;71849;50.096;14.458;2023-12-20T10:04:31;2.38;;;0.60;;
82244;SDS011;71849;50.096;14.458;2023-12-20T10:07:04;1.92;;;0.90;;
82244;SDS011;71849;50.096;14.458;2023-12-20T10:09:33;3.85;;;1.00;;
82244;SDS011;71849;50.096;14.458;2023-12-20T10:12:05;2.22;;;0.80;;
82244;SDS011;71849;50.096;14.458;2023-12-20T10:14:33;1.88;;;0.90;;
82244;SDS011;71849;50.096;14.458;2023-12-20T10:17:04;3.25;;;1.13;;
82244;SDS011;71849;50.096;14.458;2023-12-20T10:19:34;7.22;;;2.78;;
82244;SDS011;71849;50.096;14.458;2023-12-20T10:22:06;3.85;;;1.30;;
82244;SDS011;71849;50.096;14.458;2023-12-20T10:24:34;2.85;;;1.25;;
82244;SDS011;71849;50.096;14.458;2023-12-20T10:27:03;3.65;;;1.42;;
82244;SDS011;71849;50.096;14.458;2023-12-20T10:29:32;4.28;;;1.60;;
82244;SDS011;71849;50.096;14.458;2023-12-20T10:32:10;1.67;;;0.85;;
82244;SDS011;71849;50.096;14.458;2023-12-20T10:34:46;2.63;;;1.08;;
82244;SDS011;71849;50.096;14.458;2023-12-20T10:37:17;2.90;;;1.00;;
82244;SDS011;71849;50.096;14.458;2023-12-20T10:39:47;3.53;;;1.35;;
82244;SDS011;71849;50.096;14.458;2023-12-20T10:42:20;3.72;;;1.10;;
82244;SDS011;71849;50.096;14.458;2023-12-20T10:44:49;4.57;;;1.42;;
82244;SDS011;71849;50.096;14.458;2023-12-20T10:47:19;2.40;;;1.00;;
82244;SDS011;71849;50.096;14.458;2023-12-20T10:49:50;6.45;;;1.17;;
82244;SDS011;71849;50.096;14.458;2023-12-20T10:52:25;4.05;;;1.42;;
82244;SDS011;71849;50.096;14.458;2023-12-20T10:54:55;2.47;;;0.90;;
82244;SDS011;71849;50.096;14.458;2023-12-20T10:57:26;2.67;;;1.10;;
82244;SDS011;71849;50.096;14.458;2023-12-20T10:59:55;3.15;;;1.55;;
82244;SDS011;71849;50.096;14.458;2023-12-20T11:02:26;7.13;;;2.80;;
82244;SDS011;71849;50.096;14.458;2023-12-20T11:04:56;3.40;;;1.27;;
82244;SDS011;71849;50.096;14.458;2023-12-20T11:07:32;4.35;;;1.40;;
82244;SDS011;71849;50.096;14.458;2023-12-20T11:10:07;3.28;;;1.30;;
82244;SDS011;71849;50.096;14.458;2023-12-20T11:12:39;4.15;;;1.60;;
82244;SDS011;71849;50.096;14.458;2023-12-20T11:15:10;1.80;;;0.90;;
82244;SDS011;71849;50.096;14.458;2023-12-20T11:17:39;2.90;;;1.15;;
82244;SDS011;71849;50.096;14.458;2023-12-20T11:20:08;2.28;;;1.08;;
82244;SDS011;71849;50.096;14.458;2023-12-20T11:22:39;2.55;;;1.08;;
82244;SDS011;71849;50.096;14.458;2023-12-20T11:25:19;2.90;;;1.00;;
82244;SDS011;71849;50.096;14.458;2023-12-20T11:30:40;4.40;;;1.60;;
82244;SDS011;71849;50.096;14.458;2023-12-20T11:33:08;2.40;;;0.90;;
82244;SDS011;71849;50.096;14.458;2023-12-20T11:35:37;3.03;;;1.00;;
82244;SDS011;71849;50.096;14.458;2023-12-20T11:38:20;3.78;;;1.30;;
82244;SDS011;71849;50.096;14.458;2023-12-20T11:40:53;3.58;;;1.30;;
82244;SDS011;71849;50.096;14.458;2023-12-20T11:43:31;2.80;;;1.20;;
82244;SDS011;71849;50.096;14.458;2023-12-20T11:46:03;3.40;;;1.40;;
82244;SDS011;71849;50.096;14.458;2023-12-20T11:48:34;2.88;;;1.30;;
82244;SDS011;71849;50.096;14.458;2023-12-20T11:51:08;4.50;;;1.42;;
82244;SDS011;71849;50.096;14.458;2023-12-20T11:53:42;3.10;;;1.10;;
82244;SDS011;71849;50.096;14.458;2023-12-20T11:56:13;4.22;;;1.35;;
82244;SDS011;71849;50.096;14.458;2023-12-20T11:58:41;2.70;;;1.23;;
82244;SDS011;71849;50.096;14.458;2023-12-20T12:01:10;3.55;;;1.25;;
82244;SDS011;71849;50.096;14.458;2023-12-20T12:03:38;3.13;;;1.17;;
82244;SDS011;71849;50.096;14.458;2023-12-20T12:06:08;4.63;;;1.50;;
82244;SDS011;71849;50.096;14.458;2023-12-20T12:08:37;9.30;;;3.15;;
82244;SDS011;71849;50.096;14.458;2023-12-20T12:11:08;4.28;;;1.55;;
82244;SDS011;71849;50.096;14.458;2023-12-20T12:13:45;2.38;;;1.00;;
82244;SDS011;71849;50.096;14.458;2023-12-20T12:16:22;3.10;;;1.20;;
82244;SDS011;71849;50.096;14.458;2023-12-20T12:18:56;3.05;;;1.20;;
82244;SDS011;71849;50.096;14.458;2023-12-20T12:21:25;3.95;;;1.40;;
82244;SDS011;71849;50.096;14.458;2023-12-20T12:23:54;3.95;;;1.40;;
82244;SDS011;71849;50.096;14.458;2023-12-20T12:26:27;3.88;;;1.15;;
82244;SDS011;71849;50.096;14.458;2023-12-20T12:28:58;4.53;;;1.52;;
82244;SDS011;71849;50.096;14.458;2023-12-20T12:31:27;3.97;;;1.38;;
82244;SDS011;71849;50.096;14.458;2023-12-20T12:33:56;4.30;;;1.45;;
82244;SDS011;71849;50.096;14.458;2023-12-20T12:36:24;4.18;;;1.40;;
82244;SDS011;71849;50.096;14.458;2023-12-20T12:38:53;4.72;;;1.40;;
82244;SDS011;71849;50.096;14.458;2023-12-20T12:41:23;4.78;;;1.73;;
82244;SDS011;71849;50.096;14.458;2023-12-20T12:46:22;5.07;;;1.92;;
82244;SDS011;71849;50.096;14.458;2023-12-20T12:48:51;3.33;;;1.17;;
82244;SDS011;71849;50.096;14.458;2023-12-20T12:51:22;5.72;;;2.50;;
82244;SDS011;71849;50.096;14.458;2023-12-20T12:53:51;3.97;;;1.67;;
82244;SDS011;71849;50.096;14.458;2023-12-20T12:56:21;4.97;;;1.77;;
82244;SDS011;71849;50.096;14.458;2023-12-20T12:58:53;4.90;;;1.88;;
82244;SDS011;71849;50.096;14.458;2023-12-20T13:01:25;5.35;;;1.23;;
82244;SDS011;71849;50.096;14.458;2023-12-20T13:03:54;3.30;;;1.10;;
82244;SDS011;71849;50.096;14.458;2023-12-20T13:06:22;2.45;;;1.00;;
82244;SDS011;71849;50.096;14.458;2023-12-20T13:08:52;3.20;;;1.42;;
82244;SDS011;71849;50.096;14.458;2023-12-20T13:11:24;6.00;;;1.30;;
82244;SDS011;71849;50.096;14.458;2023-12-20T13:13:52;3.40;;;1.17;;
82244;SDS011;71849;50.096;14.458;2023-12-20T13:16:21;4.85;;;1.30;;
82244;SDS011;71849;50.096;14.458;2023-12-20T13:18:54;5.40;;;1.42;;
82244;SDS011;71849;50.096;14.458;2023-12-20T13:21:24;4.28;;;1.33;;
82244;SDS011;71849;50.096;14.458;2023-12-20T13:23:52;4.90;;;1.27;;
82244;SDS011;71849;50.096;14.458;2023-12-20T13:26:20;3.05;;;1.40;;
82244;SDS011;71849;50.096;14.458;2023-12-20T13:28:51;5.38;;;1.40;;
82244;SDS011;71849;50.096;14.458;2023-12-20T13:31:21;3.92;;;1.20;;
82244;SDS011;71849;50.096;14.458;2023-12-20T13:33:56;2.70;;;1.15;;
82244;SDS011;71849;50.096;14.458;2023-12-20T13:36:24;3.00;;;1.20;;
82244;SDS011;71849;50.096;14.458;2023-12-20T13:38:56;3.92;;;1.30;;
82244;SDS011;71849;50.096;14.458;2023-12-20T13:41:25;5.70;;;1.40;;
82244;SDS011;71849;50.096;14.458;2023-12-20T13:43:55;3.58;;;0.98;;
82244;SDS011;71849;50.096;14.458;2023-12-20T13:46:23;4.22;;;1.20;;
82244;SDS011;71849;50.096;14.458;2023-12-20T13:48:56;3.95;;;1.20;;
82244;SDS011;71849;50.096;14.458;2023-12-20T13:51:27;6.40;;;2.05;;
82244;SDS011;71849;50.096;14.458;2023-12-20T13:54:03;6.90;;;1.60;;
82244;SDS011;71849;50.096;14.458;2023-12-20T13:56:34;4.22;;;1.60;;
82244;SDS011;71849;50.096;14.458;2023-12-20T13:59:00;4.50;;;1.52;;
82244;SDS011;71849;50.096;14.458;2023-12-20T14:01:32;5.07;;;1.70;;
82244;SDS011;71849;50.096;14.458;2023-12-20T14:04:03;4.63;;;1.52;;
82244;SDS011;71849;50.096;14.458;2023-12-20T14:06:32;5.90;;;2.28;;
82244;SDS011;71849;50.096;14.458;2023-12-20T14:09:00;3.75;;;1.30;;
82244;SDS011;71849;50.096;14.458;2023-12-20T14:11:31;4.97;;;1.25;;
82244;SDS011;71849;50.096;14.458;2023-12-20T14:14:06;5.35;;;1.40;;
82244;SDS011;71849;50.096;14.458;2023-12-20T14:16:36;3.95;;;1.52;;
82244;SDS011;71849;50.096;14.458;2023-12-20T14:19:07;2.33;;;1.13;;
82244;SDS011;71849;50.096;14.458;2023-12-20T14:21:37;4.80;;;1.52;;
82244;SDS011;71849;50.096;14.458;2023-12-20T14:24:09;2.35;;;1.10;;
82244;SDS011;71849;50.096;14.458;2023-12-20T14:26:39;4.57;;;1.40;;
82244;SDS011;71849;50.096;14.458;2023-12-20T14:29:08;5.32;;;1.70;;
82244;SDS011;71849;50.096;14.458;2023-12-20T14:31:36;4.35;;;1.40;;
82244;SDS011;71849;50.096;14.458;2023-12-20T14:34:13;3.97;;;1.20;;
82244;SDS011;71849;50.096;14.458;2023-12-20T14:36:42;4.10;;;1.27;;
82244;SDS011;71849;50.096;14.458;2023-12-20T14:39:11;7.38;;;1.35;;
82244;SDS011;71849;50.096;14.458;2023-12-20T14:41:42;5.18;;;1.58;;
82244;SDS011;71849;50.096;14.458;2023-12-20T14:44:11;4.70;;;1.25;;
82244;SDS011;71849;50.096;14.458;2023-12-20T14:46:39;4.95;;;1.52;;
82244;SDS011;71849;50.096;14.458;2023-12-20T14:49:08;4.40;;;1.55;;
82244;SDS011;71849;50.096;14.458;2023-12-20T14:51:39;3.67;;;1.00;;
82244;SDS011;71849;50.096;14.458;2023-12-20T14:54:09;9.43;;;4.22;;
82244;SDS011;71849;50.096;14.458;2023-12-20T14:56:37;5.45;;;1.38;;
82244;SDS011;71849;50.096;14.458;2023-12-20T14:59:06;4.30;;;1.23;;
82244;SDS011;71849;50.096;14.458;2023-12-20T15:01:38;5.10;;;1.40;;
82244;SDS011;71849;50.096;14.458;2023-12-20T15:04:08;6.47;;;1.92;;
82244;SDS011;71849;50.096;14.458;2023-12-20T15:06:41;3.75;;;1.40;;
82244;SDS011;71849;50.096;14.458;2023-12-20T15:09:10;4.20;;;1.50;;
82244;SDS011;71849;50.096;14.458;2023-12-20T15:11:38;6.65;;;1.60;;
82244;SDS011;71849;50.096;14.458;2023-12-20T15:14:06;5.28;;;1.77;;
82244;SDS011;71849;50.096;14.458;2023-12-20T15:16:35;6.55;;;1.67;;
82244;SDS011;71849;50.096;14.458;2023-12-20T15:19:03;5.10;;;1.60;;
82244;SDS011;71849;50.096;14.458;2023-12-20T15:21:32;4.95;;;1.33;;
82244;SDS011;71849;50.096;14.458;2023-12-20T15:24:08;7.05;;;1.50;;
82244;SDS011;71849;50.096;14.458;2023-12-20T15:26:40;9.32;;;2.60;;
82244;SDS011;71849;50.096;14.458;2023-12-20T15:29:08;7.18;;;1.98;;